sensor_id;sensor_type;location;lat;lon;timestamp;temperature;humidity
12481;DHT22;6305;48.398;11.762;2023-02-01T00:02:15;2.60;99.90
12481;DHT22;6305;48.398;11.762;2023-02-01T00:04:42;2.60;99.90
12481;DHT22;6305;48.398;11.762;2023-02-01T00:07:09;2.60;99.90
12481;DHT22;6305;48.398;11.762;2023-02-01T00:09:37;2.60;99.90
12481;DHT22;6305;48.398;11.762;2023-02-01T00:12:04;2.60;99.90
12481;DHT22;6305;48.398;11.762;2023-02-01T00:14:31;2.60;99.90
12481;DHT22;6305;48.398;11.762;2023-02-01T00:17:04;2.60;99.90
12481;DHT22;6305;48.398;11.762;2023-02-01T00:19:31;2.60;99.90
12481;DHT22;6305;48.398;11.762;2023-02-01T00:21:58;2.60;99.90
12481;DHT22;6305;48.398;11.762;2023-02-01T00:24:25;2.70;99.90
12481;DHT22;6305;48.398;11.762;2023-02-01T00:26:53;2.70;99.90
12481;DHT22;6305;48.398;11.762;2023-02-01T00:29:21;2.70;99.90
12481;DHT22;6305;48.398;11.762;2023-02-01T00:31:49;2.80;99.90
12481;DHT22;6305;48.398;11.762;2023-02-01T00:34:16;2.80;99.90
12481;DHT22;6305;48.398;11.762;2023-02-01T00:36:44;2.90;99.90
12481;DHT22;6305;48.398;11.762;2023-02-01T00:39:12;2.90;99.90
12481;DHT22;6305;48.398;11.762;2023-02-01T00:41:39;2.90;99.90
12481;DHT22;6305;48.398;11.762;2023-02-01T00:44:08;3.00;99.90
12481;DHT22;6305;48.398;11.762;2023-02-01T00:46:35;3.00;99.90
12481;DHT22;6305;48.398;11.762;2023-02-01T00:49:02;3.10;99.90
12481;DHT22;6305;48.398;11.762;2023-02-01T00:51:29;3.10;99.90
12481;DHT22;6305;48.398;11.762;2023-02-01T00:53:57;3.10;99.90
12481;DHT22;6305;48.398;11.762;2023-02-01T00:56:24;3.20;99.90
12481;DHT22;6305;48.398;11.762;2023-02-01T00:58:53;3.20;99.90
12481;DHT22;6305;48.398;11.762;2023-02-01T01:01:23;3.30;99.90
12481;DHT22;6305;48.398;11.762;2023-02-01T01:03:51;3.30;99.90
12481;DHT22;6305;48.398;11.762;2023-02-01T01:06:21;3.30;99.90
12481;DHT22;6305;48.398;11.762;2023-02-01T01:08:50;3.40;99.90
12481;DHT22;6305;48.398;11.762;2023-02-01T01:11:21;3.30;99.90
12481;DHT22;6305;48.398;11.762;2023-02-01T01:13:49;3.40;99.90
12481;DHT22;6305;48.398;11.762;2023-02-01T01:16:18;3.40;99.90
12481;DHT22;6305;48.398;11.762;2023-02-01T01:18:47;3.40;99.90
12481;DHT22;6305;48.398;11.762;2023-02-01T01:21:15;3.40;99.90
12481;DHT22;6305;48.398;11.762;2023-02-01T01:23:43;3.40;99.90
12481;DHT22;6305;48.398;11.762;2023-02-01T01:26:13;3.40;99.90
12481;DHT22;6305;48.398;11.762;2023-02-01T01:28:41;3.30;99.90
12481;DHT22;6305;48.398;11.762;2023-02-01T01:31:09;3.30;99.90
12481;DHT22;6305;48.398;11.762;2023-02-01T01:33:36;3.30;99.90
12481;DHT22;6305;48.398;11.762;2023-02-01T01:36:06;3.30;99.90
12481;DHT22;6305;48.398;11.762;2023-02-01T01:38:33;3.30;99.90
12481;DHT22;6305;48.398;11.762;2023-02-01T01:41:01;3.30;99.90
12481;DHT22;6305;48.398;11.762;2023-02-01T01:43:46;3.30;99.90
12481;DHT22;6305;48.398;11.762;2023-02-01T01:46:16;3.30;99.90
12481;DHT22;6305;48.398;11.762;2023-02-01T01:48:43;3.30;99.90
12481;DHT22;6305;48.398;11.762;2023-02-01T01:51:14;3.30;99.90
12481;DHT22;6305;48.398;11.762;2023-02-01T01:53:48;3.30;99.90
12481;DHT22;6305;48.398;11.762;2023-02-01T01:56:17;3.30;99.90
12481;DHT22;6305;48.398;11.762;2023-02-01T01:58:44;3.30;99.90
12481;DHT22;6305;48.398;11.762;2023-02-01T02:01:11;3.30;99.90
12481;DHT22;6305;48.398;11.762;2023-02-01T02:03:41;3.20;99.90
12481;DHT22;6305;48.398;11.762;2023-02-01T02:06:17;3.20;99.90
12481;DHT22;6305;48.398;11.762;2023-02-01T02:08:46;3.20;99.90
12481;DHT22;6305;48.398;11.762;2023-02-01T02:11:16;3.20;99.90
12481;DHT22;6305;48.398;11.762;2023-02-01T02:13:46;3.20;99.90
12481;DHT22;6305;48.398;11.762;2023-02-01T02:16:35;3.20;99.90
12481;DHT22;6305;48.398;11.762;2023-02-01T02:19:27;3.20;99.90
12481;DHT22;6305;48.398;11.762;2023-02-01T02:25:24;3.20;99.90
12481;DHT22;6305;48.398;11.762;2023-02-01T02:27:59;3.20;99.90
12481;DHT22;6305;48.398;11.762;2023-02-01T02:30:47;3.20;99.90
12481;DHT22;6305;48.398;11.762;2023-02-01T02:33:41;3.10;99.90
12481;DHT22;6305;48.398;11.762;2023-02-01T02:36:16;3.00;99.90
12481;DHT22;6305;48.398;11.762;2023-02-01T02:38:50;3.00;99.90
12481;DHT22;6305;48.398;11.762;2023-02-01T02:41:27;3.00;99.90
12481;DHT22;6305;48.398;11.762;2023-02-01T02:44:23;3.00;99.90
12481;DHT22;6305;48.398;11.762;2023-02-01T02:47:13;3.00;99.90
12481;DHT22;6305;48.398;11.762;2023-02-01T02:49:56;3.00;99.90
12481;DHT22;6305;48.398;11.762;2023-02-01T02:52:46;3.00;99.90
12481;DHT22;6305;48.398;11.762;2023-02-01T02:55:33;3.00;99.90
12481;DHT22;6305;48.398;11.762;2023-02-01T02:58:03;3.00;99.90
12481;DHT22;6305;48.398;11.762;2023-02-01T03:00:48;3.00;99.90
12481;DHT22;6305;48.398;11.762;2023-02-01T03:03:36;3.00;99.90
12481;DHT22;6305;48.398;11.762;2023-02-01T03:06:24;3.00;99.90
12481;DHT22;6305;48.398;11.762;2023-02-01T03:08:51;3.00;99.90
12481;DHT22;6305;48.398;11.762;2023-02-01T03:11:23;3.00;99.90
12481;DHT22;6305;48.398;11.762;2023-02-01T03:14:14;2.90;99.90
12481;DHT22;6305;48.398;11.762;2023-02-01T03:16:46;3.00;99.90
12481;DHT22;6305;48.398;11.762;2023-02-01T03:19:17;3.00;99.90
12481;DHT22;6305;48.398;11.762;2023-02-01T03:21:49;2.90;99.90
12481;DHT22;6305;48.398;11.762;2023-02-01T03:24:19;2.90;99.90
12481;DHT22;6305;48.398;11.762;2023-02-01T03:26:51;2.90;99.90
12481;DHT22;6305;48.398;11.762;2023-02-01T03:29:23;2.90;99.90
12481;DHT22;6305;48.398;11.762;2023-02-01T03:31:51;2.80;99.90
12481;DHT22;6305;48.398;11.762;2023-02-01T03:34:18;2.60;99.90
12481;DHT22;6305;48.398;11.762;2023-02-01T03:36:50;2.50;99.90
12481;DHT22;6305;48.398;11.762;2023-02-01T03:39:22;2.40;99.90
12481;DHT22;6305;48.398;11.762;2023-02-01T03:41:55;2.30;99.90
12481;DHT22;6305;48.398;11.762;2023-02-01T03:44:24;2.20;99.90
12481;DHT22;6305;48.398;11.762;2023-02-01T03:46:55;2.20;99.90
12481;DHT22;6305;48.398;11.762;2023-02-01T03:49:26;2.20;99.90
12481;DHT22;6305;48.398;11.762;2023-02-01T03:51:57;2.30;99.90
12481;DHT22;6305;48.398;11.762;2023-02-01T03:54:25;2.30;99.90
12481;DHT22;6305;48.398;11.762;2023-02-01T03:56:56;2.30;99.90
12481;DHT22;6305;48.398;11.762;2023-02-01T03:59:25;2.30;99.90
12481;DHT22;6305;48.398;11.762;2023-02-01T04:01:52;2.20;99.90
12481;DHT22;6305;48.398;11.762;2023-02-01T04:04:20;2.10;99.90
12481;DHT22;6305;48.398;11.762;2023-02-01T04:06:51;2.00;99.90
12481;DHT22;6305;48.398;11.762;2023-02-01T04:09:20;1.90;99.90
12481;DHT22;6305;48.398;11.762;2023-02-01T04:11:47;2.00;99.90
12481;DHT22;6305;48.398;11.762;2023-02-01T04:14:14;2.00;99.90
12481;DHT22;6305;48.398;11.762;2023-02-01T04:16:41;2.10;99.90
12481;DHT22;6305;48.398;11.762;2023-02-01T04:19:08;2.20;99.90
12481;DHT22;6305;48.398;11.762;2023-02-01T04:21:35;2.40;99.90
12481;DHT22;6305;48.398;11.762;2023-02-01T04:24:02;2.50;99.90
12481;DHT22;6305;48.398;11.762;2023-02-01T04:26:30;2.50;99.90
12481;DHT22;6305;48.398;11.762;2023-02-01T04:28:57;2.50;99.90
12481;DHT22;6305;48.398;11.762;2023-02-01T04:31:24;2.50;99.90
12481;DHT22;6305;48.398;11.762;2023-02-01T04:33:53;2.50;99.90
12481;DHT22;6305;48.398;11.762;2023-02-01T04:36:20;2.60;99.90
12481;DHT22;6305;48.398;11.762;2023-02-01T04:38:48;2.60;99.90
12481;DHT22;6305;48.398;11.762;2023-02-01T04:41:16;2.60;99.90
12481;DHT22;6305;48.398;11.762;2023-02-01T04:43:46;2.60;99.90
12481;DHT22;6305;48.398;11.762;2023-02-01T04:46:13;2.70;99.90
12481;DHT22;6305;48.398;11.762;2023-02-01T04:48:40;2.70;99.90
12481;DHT22;6305;48.398;11.762;2023-02-01T04:51:08;2.80;99.90
12481;DHT22;6305;48.398;11.762;2023-02-01T04:53:36;2.80;99.90
12481;DHT22;6305;48.398;11.762;2023-02-01T04:56:03;2.90;99.90
12481;DHT22;6305;48.398;11.762;2023-02-01T04:58:30;2.90;99.90
12481;DHT22;6305;48.398;11.762;2023-02-01T05:00:59;2.90;99.90
12481;DHT22;6305;48.398;11.762;2023-02-01T05:03:28;2.90;99.90
12481;DHT22;6305;48.398;11.762;2023-02-01T05:05:55;2.90;99.90
12481;DHT22;6305;48.398;11.762;2023-02-01T05:08:22;2.90;99.90
12481;DHT22;6305;48.398;11.762;2023-02-01T05:10:50;3.00;99.90
12481;DHT22;6305;48.398;11.762;2023-02-01T05:13:17;3.00;99.90
12481;DHT22;6305;48.398;11.762;2023-02-01T05:16:04;3.00;99.90
12481;DHT22;6305;48.398;11.762;2023-02-01T05:18:31;3.10;99.90
12481;DHT22;6305;48.398;11.762;2023-02-01T05:20:58;3.10;99.90
12481;DHT22;6305;48.398;11.762;2023-02-01T05:23:25;3.10;99.90
12481;DHT22;6305;48.398;11.762;2023-02-01T05:25:52;3.10;99.90
12481;DHT22;6305;48.398;11.762;2023-02-01T05:28:19;3.10;99.90
12481;DHT22;6305;48.398;11.762;2023-02-01T05:30:46;3.10;99.90
12481;DHT22;6305;48.398;11.762;2023-02-01T05:33:14;3.10;99.90
12481;DHT22;6305;48.398;11.762;2023-02-01T05:35:41;3.10;99.90
12481;DHT22;6305;48.398;11.762;2023-02-01T05:38:07;3.10;99.90
12481;DHT22;6305;48.398;11.762;2023-02-01T05:40:34;3.10;99.90
12481;DHT22;6305;48.398;11.762;2023-02-01T05:43:02;3.20;99.90
12481;DHT22;6305;48.398;11.762;2023-02-01T05:45:29;3.20;99.90
12481;DHT22;6305;48.398;11.762;2023-02-01T05:47:56;3.30;99.90
12481;DHT22;6305;48.398;11.762;2023-02-01T05:50:24;3.30;99.90
12481;DHT22;6305;48.398;11.762;2023-02-01T05:52:56;3.30;99.90
12481;DHT22;6305;48.398;11.762;2023-02-01T05:55:23;3.30;99.90
12481;DHT22;6305;48.398;11.762;2023-02-01T05:57:50;3.30;99.90
12481;DHT22;6305;48.398;11.762;2023-02-01T06:00:18;3.30;99.90
12481;DHT22;6305;48.398;11.762;2023-02-01T06:02:45;3.30;99.90
12481;DHT22;6305;48.398;11.762;2023-02-01T06:05:11;3.30;99.90
12481;DHT22;6305;48.398;11.762;2023-02-01T06:07:40;3.30;99.90
12481;DHT22;6305;48.398;11.762;2023-02-01T06:10:09;3.30;99.90
12481;DHT22;6305;48.398;11.762;2023-02-01T06:12:36;3.30;99.90
12481;DHT22;6305;48.398;11.762;2023-02-01T06:15:03;3.30;99.90
12481;DHT22;6305;48.398;11.762;2023-02-01T06:17:31;3.30;99.90
12481;DHT22;6305;48.398;11.762;2023-02-01T06:19:58;3.30;99.90
12481;DHT22;6305;48.398;11.762;2023-02-01T06:22:25;3.30;99.90
12481;DHT22;6305;48.398;11.762;2023-02-01T06:24:53;3.30;99.90
12481;DHT22;6305;48.398;11.762;2023-02-01T06:27:23;3.30;99.90
12481;DHT22;6305;48.398;11.762;2023-02-01T06:29:50;3.20;99.90
12481;DHT22;6305;48.398;11.762;2023-02-01T06:32:19;3.30;99.90
12481;DHT22;6305;48.398;11.762;2023-02-01T06:34:46;3.30;99.90
12481;DHT22;6305;48.398;11.762;2023-02-01T06:37:13;3.30;99.90
12481;DHT22;6305;48.398;11.762;2023-02-01T06:39:40;3.30;99.90
12481;DHT22;6305;48.398;11.762;2023-02-01T06:42:08;3.30;99.90
12481;DHT22;6305;48.398;11.762;2023-02-01T06:44:35;3.30;99.90
12481;DHT22;6305;48.398;11.762;2023-02-01T06:47:03;3.20;99.90
12481;DHT22;6305;48.398;11.762;2023-02-01T06:49:30;3.20;99.90
12481;DHT22;6305;48.398;11.762;2023-02-01T06:51:57;3.20;99.90
12481;DHT22;6305;48.398;11.762;2023-02-01T06:54:25;3.20;99.90
12481;DHT22;6305;48.398;11.762;2023-02-01T06:56:52;3.20;99.90
12481;DHT22;6305;48.398;11.762;2023-02-01T06:59:21;3.20;99.90
12481;DHT22;6305;48.398;11.762;2023-02-01T07:01:50;3.30;99.90
12481;DHT22;6305;48.398;11.762;2023-02-01T07:04:17;3.30;99.90
12481;DHT22;6305;48.398;11.762;2023-02-01T07:06:44;3.40;99.90
12481;DHT22;6305;48.398;11.762;2023-02-01T07:09:12;3.40;99.90
12481;DHT22;6305;48.398;11.762;2023-02-01T07:11:39;3.50;99.90
12481;DHT22;6305;48.398;11.762;2023-02-01T07:14:08;3.50;99.90
12481;DHT22;6305;48.398;11.762;2023-02-01T07:16:37;3.60;99.90
12481;DHT22;6305;48.398;11.762;2023-02-01T07:19:04;3.60;99.90
12481;DHT22;6305;48.398;11.762;2023-02-01T07:21:31;3.60;99.90
12481;DHT22;6305;48.398;11.762;2023-02-01T07:23:59;3.70;99.90
12481;DHT22;6305;48.398;11.762;2023-02-01T07:26:26;3.70;99.90
12481;DHT22;6305;48.398;11.762;2023-02-01T07:28:53;3.70;99.90
12481;DHT22;6305;48.398;11.762;2023-02-01T07:31:19;3.70;99.90
12481;DHT22;6305;48.398;11.762;2023-02-01T07:33:49;3.80;99.90
12481;DHT22;6305;48.398;11.762;2023-02-01T07:36:17;3.80;99.90
12481;DHT22;6305;48.398;11.762;2023-02-01T07:38:45;3.80;99.90
12481;DHT22;6305;48.398;11.762;2023-02-01T07:41:14;3.80;99.90
12481;DHT22;6305;48.398;11.762;2023-02-01T07:43:41;3.90;99.90
12481;DHT22;6305;48.398;11.762;2023-02-01T07:46:09;3.90;99.90
12481;DHT22;6305;48.398;11.762;2023-02-01T07:48:37;3.90;99.90
12481;DHT22;6305;48.398;11.762;2023-02-01T07:51:08;4.00;99.90
12481;DHT22;6305;48.398;11.762;2023-02-01T07:53:36;4.00;99.90
12481;DHT22;6305;48.398;11.762;2023-02-01T07:56:08;4.00;99.90
12481;DHT22;6305;48.398;11.762;2023-02-01T07:58:36;4.10;99.90
12481;DHT22;6305;48.398;11.762;2023-02-01T08:01:02;4.10;99.90
12481;DHT22;6305;48.398;11.762;2023-02-01T08:03:51;4.10;99.90
12481;DHT22;6305;48.398;11.762;2023-02-01T08:06:20;4.10;99.90
12481;DHT22;6305;48.398;11.762;2023-02-01T08:08:47;4.10;99.90
12481;DHT22;6305;48.398;11.762;2023-02-01T08:11:14;4.10;99.90
12481;DHT22;6305;48.398;11.762;2023-02-01T08:13:41;4.10;99.90
12481;DHT22;6305;48.398;11.762;2023-02-01T08:16:09;4.10;99.90
12481;DHT22;6305;48.398;11.762;2023-02-01T08:18:37;4.10;99.90
12481;DHT22;6305;48.398;11.762;2023-02-01T08:21:06;4.20;99.90
12481;DHT22;6305;48.398;11.762;2023-02-01T08:23:35;4.20;99.90
12481;DHT22;6305;48.398;11.762;2023-02-01T08:26:07;4.30;99.90
12481;DHT22;6305;48.398;11.762;2023-02-01T08:28:35;4.30;99.90
12481;DHT22;6305;48.398;11.762;2023-02-01T08:31:05;4.30;99.90
12481;DHT22;6305;48.398;11.762;2023-02-01T08:33:32;4.40;99.90
12481;DHT22;6305;48.398;11.762;2023-02-01T08:36:01;4.40;99.90
12481;DHT22;6305;48.398;11.762;2023-02-01T08:38:28;4.50;99.90
12481;DHT22;6305;48.398;11.762;2023-02-01T08:40:57;4.50;99.90
12481;DHT22;6305;48.398;11.762;2023-02-01T08:43:24;4.50;99.90
12481;DHT22;6305;48.398;11.762;2023-02-01T08:45:54;4.60;99.90
12481;DHT22;6305;48.398;11.762;2023-02-01T08:48:22;4.60;99.90
12481;DHT22;6305;48.398;11.762;2023-02-01T08:50:49;4.70;99.90
12481;DHT22;6305;48.398;11.762;2023-02-01T08:53:16;4.70;99.90
12481;DHT22;6305;48.398;11.762;2023-02-01T08:55:43;4.80;99.90
12481;DHT22;6305;48.398;11.762;2023-02-01T08:58:11;4.80;99.90
12481;DHT22;6305;48.398;11.762;2023-02-01T09:00:39;4.80;99.90
12481;DHT22;6305;48.398;11.762;2023-02-01T09:03:08;4.80;99.90
12481;DHT22;6305;48.398;11.762;2023-02-01T09:05:36;4.90;99.90
12481;DHT22;6305;48.398;11.762;2023-02-01T09:08:03;5.00;99.90
12481;DHT22;6305;48.398;11.762;2023-02-01T09:10:30;5.00;99.90
12481;DHT22;6305;48.398;11.762;2023-02-01T09:12:57;5.10;99.90
12481;DHT22;6305;48.398;11.762;2023-02-01T09:15:26;5.20;99.90
12481;DHT22;6305;48.398;11.762;2023-02-01T09:17:53;5.30;99.90
12481;DHT22;6305;48.398;11.762;2023-02-01T09:20:20;5.40;99.90
12481;DHT22;6305;48.398;11.762;2023-02-01T09:22:50;5.50;99.90
12481;DHT22;6305;48.398;11.762;2023-02-01T09:25:17;5.80;99.90
12481;DHT22;6305;48.398;11.762;2023-02-01T09:27:44;6.00;99.90
12481;DHT22;6305;48.398;11.762;2023-02-01T09:30:12;6.20;99.90
12481;DHT22;6305;48.398;11.762;2023-02-01T09:32:40;6.30;99.90
12481;DHT22;6305;48.398;11.762;2023-02-01T09:35:07;6.20;99.90
12481;DHT22;6305;48.398;11.762;2023-02-01T09:37:34;5.90;99.90
12481;DHT22;6305;48.398;11.762;2023-02-01T09:40:04;5.70;99.90
12481;DHT22;6305;48.398;11.762;2023-02-01T09:42:55;5.60;99.90
12481;DHT22;6305;48.398;11.762;2023-02-01T09:45:28;5.90;99.90
12481;DHT22;6305;48.398;11.762;2023-02-01T09:48:05;6.00;99.90
12481;DHT22;6305;48.398;11.762;2023-02-01T09:50:37;6.10;99.90
12481;DHT22;6305;48.398;11.762;2023-02-01T09:53:09;6.10;99.90
12481;DHT22;6305;48.398;11.762;2023-02-01T09:55:40;6.00;99.90
12481;DHT22;6305;48.398;11.762;2023-02-01T09:58:13;5.90;99.90
12481;DHT22;6305;48.398;11.762;2023-02-01T10:00:45;5.80;99.90
12481;DHT22;6305;48.398;11.762;2023-02-01T10:03:20;5.80;99.90
12481;DHT22;6305;48.398;11.762;2023-02-01T10:08:59;5.80;99.90
12481;DHT22;6305;48.398;11.762;2023-02-01T10:11:35;5.70;99.90
12481;DHT22;6305;48.398;11.762;2023-02-01T10:14:26;5.80;99.90
12481;DHT22;6305;48.398;11.762;2023-02-01T10:17:03;5.80;99.90
12481;DHT22;6305;48.398;11.762;2023-02-01T10:19:42;5.60;99.90
12481;DHT22;6305;48.398;11.762;2023-02-01T10:22:40;5.50;99.90
12481;DHT22;6305;48.398;11.762;2023-02-01T10:25:14;5.50;99.90
12481;DHT22;6305;48.398;11.762;2023-02-01T10:27:44;5.50;99.90
12481;DHT22;6305;48.398;11.762;2023-02-01T10:30:19;5.40;99.90
12481;DHT22;6305;48.398;11.762;2023-02-01T10:32:52;5.50;99.90
12481;DHT22;6305;48.398;11.762;2023-02-01T10:35:27;5.60;99.90
12481;DHT22;6305;48.398;11.762;2023-02-01T10:37:58;5.60;99.90
12481;DHT22;6305;48.398;11.762;2023-02-01T10:40:27;5.50;99.90
12481;DHT22;6305;48.398;11.762;2023-02-01T10:42:57;5.40;99.90
12481;DHT22;6305;48.398;11.762;2023-02-01T10:45:28;5.40;99.90
12481;DHT22;6305;48.398;11.762;2023-02-01T10:47:57;5.40;99.90
12481;DHT22;6305;48.398;11.762;2023-02-01T10:50:34;5.40;99.90
12481;DHT22;6305;48.398;11.762;2023-02-01T10:53:09;5.40;99.90
12481;DHT22;6305;48.398;11.762;2023-02-01T10:55:40;5.40;99.90
12481;DHT22;6305;48.398;11.762;2023-02-01T10:58:15;5.40;99.90
12481;DHT22;6305;48.398;11.762;2023-02-01T11:00:46;5.40;99.90
12481;DHT22;6305;48.398;11.762;2023-02-01T11:03:39;5.50;99.90
12481;DHT22;6305;48.398;11.762;2023-02-01T11:06:16;5.50;99.90
12481;DHT22;6305;48.398;11.762;2023-02-01T11:08:46;5.50;99.90
12481;DHT22;6305;48.398;11.762;2023-02-01T11:11:13;5.50;99.90
12481;DHT22;6305;48.398;11.762;2023-02-01T11:13:41;5.50;99.90
12481;DHT22;6305;48.398;11.762;2023-02-01T11:16:12;5.60;99.90
12481;DHT22;6305;48.398;11.762;2023-02-01T11:18:40;5.60;99.90
12481;DHT22;6305;48.398;11.762;2023-02-01T11:21:08;5.70;99.90
12481;DHT22;6305;48.398;11.762;2023-02-01T11:23:43;5.80;99.90
12481;DHT22;6305;48.398;11.762;2023-02-01T11:26:13;5.90;99.90
12481;DHT22;6305;48.398;11.762;2023-02-01T11:28:50;5.80;99.90
12481;DHT22;6305;48.398;11.762;2023-02-01T11:31:18;5.90;99.90
12481;DHT22;6305;48.398;11.762;2023-02-01T11:33:50;6.00;99.90
12481;DHT22;6305;48.398;11.762;2023-02-01T11:36:19;6.20;99.90
12481;DHT22;6305;48.398;11.762;2023-02-01T11:38:53;6.40;99.90
12481;DHT22;6305;48.398;11.762;2023-02-01T11:41:23;6.60;99.90
12481;DHT22;6305;48.398;11.762;2023-02-01T11:43:53;6.60;99.90
12481;DHT22;6305;48.398;11.762;2023-02-01T11:46:23;6.60;99.90
12481;DHT22;6305;48.398;11.762;2023-02-01T11:48:53;6.50;99.90
12481;DHT22;6305;48.398;11.762;2023-02-01T11:51:37;6.40;99.90
12481;DHT22;6305;48.398;11.762;2023-02-01T11:54:18;6.10;99.90
12481;DHT22;6305;48.398;11.762;2023-02-01T11:56:59;5.90;99.90
12481;DHT22;6305;48.398;11.762;2023-02-01T11:59:46;5.70;99.90
12481;DHT22;6305;48.398;11.762;2023-02-01T12:02:34;5.60;99.90
12481;DHT22;6305;48.398;11.762;2023-02-01T12:05:18;5.50;99.90
12481;DHT22;6305;48.398;11.762;2023-02-01T12:10:51;5.40;99.90
12481;DHT22;6305;48.398;11.762;2023-02-01T12:13:30;5.20;99.90
12481;DHT22;6305;48.398;11.762;2023-02-01T12:16:09;5.10;99.90
12481;DHT22;6305;48.398;11.762;2023-02-01T12:19:00;5.10;99.90
12481;DHT22;6305;48.398;11.762;2023-02-01T12:21:43;5.20;99.90
12481;DHT22;6305;48.398;11.762;2023-02-01T12:27:19;5.30;99.90
12481;DHT22;6305;48.398;11.762;2023-02-01T12:30:10;5.30;99.90
12481;DHT22;6305;48.398;11.762;2023-02-01T12:32:51;5.30;99.90
12481;DHT22;6305;48.398;11.762;2023-02-01T12:38:44;5.30;99.90
12481;DHT22;6305;48.398;11.762;2023-02-01T12:41:42;5.30;99.90
12481;DHT22;6305;48.398;11.762;2023-02-01T12:44:24;5.30;99.90
12481;DHT22;6305;48.398;11.762;2023-02-01T12:46:54;5.30;99.90
12481;DHT22;6305;48.398;11.762;2023-02-01T12:49:29;5.40;99.90
12481;DHT22;6305;48.398;11.762;2023-02-01T12:52:01;5.50;99.90
12481;DHT22;6305;48.398;11.762;2023-02-01T12:54:34;5.50;99.90
12481;DHT22;6305;48.398;11.762;2023-02-01T12:57:04;5.60;99.90
12481;DHT22;6305;48.398;11.762;2023-02-01T12:59:38;5.60;99.90
12481;DHT22;6305;48.398;11.762;2023-02-01T13:02:15;5.60;99.90
12481;DHT22;6305;48.398;11.762;2023-02-01T13:04:52;5.60;99.90
12481;DHT22;6305;48.398;11.762;2023-02-01T13:07:26;5.50;99.90
12481;DHT22;6305;48.398;11.762;2023-02-01T13:09:59;5.50;99.90
12481;DHT22;6305;48.398;11.762;2023-02-01T13:12:32;5.40;99.90
12481;DHT22;6305;48.398;11.762;2023-02-01T13:15:04;5.30;99.90
12481;DHT22;6305;48.398;11.762;2023-02-01T13:17:36;5.40;99.90
12481;DHT22;6305;48.398;11.762;2023-02-01T13:20:10;5.30;99.90
12481;DHT22;6305;48.398;11.762;2023-02-01T13:22:45;5.20;99.90
12481;DHT22;6305;48.398;11.762;2023-02-01T13:25:16;5.20;99.90
12481;DHT22;6305;48.398;11.762;2023-02-01T13:27:45;5.20;99.90
12481;DHT22;6305;48.398;11.762;2023-02-01T13:30:17;5.20;99.90
12481;DHT22;6305;48.398;11.762;2023-02-01T13:33:04;5.20;99.90
12481;DHT22;6305;48.398;11.762;2023-02-01T13:36:00;5.20;99.90
12481;DHT22;6305;48.398;11.762;2023-02-01T13:38:51;5.30;99.90
12481;DHT22;6305;48.398;11.762;2023-02-01T13:41:26;5.40;99.90
12481;DHT22;6305;48.398;11.762;2023-02-01T13:43:57;5.50;99.90
12481;DHT22;6305;48.398;11.762;2023-02-01T13:46:27;5.50;99.90
12481;DHT22;6305;48.398;11.762;2023-02-01T13:48:57;5.50;99.90
12481;DHT22;6305;48.398;11.762;2023-02-01T13:51:40;5.50;99.90
12481;DHT22;6305;48.398;11.762;2023-02-01T13:54:28;5.50;99.90
12481;DHT22;6305;48.398;11.762;2023-02-01T13:56:56;5.50;99.90
12481;DHT22;6305;48.398;11.762;2023-02-01T13:59:52;5.60;99.90
12481;DHT22;6305;48.398;11.762;2023-02-01T14:02:49;5.60;99.90
12481;DHT22;6305;48.398;11.762;2023-02-01T14:08:22;5.50;99.90
12481;DHT22;6305;48.398;11.762;2023-02-01T14:10:52;5.50;99.90
12481;DHT22;6305;48.398;11.762;2023-02-01T14:13:26;5.40;99.90
12481;DHT22;6305;48.398;11.762;2023-02-01T14:16:14;5.40;99.90
12481;DHT22;6305;48.398;11.762;2023-02-01T14:18:59;5.40;99.90
12481;DHT22;6305;48.398;11.762;2023-02-01T14:21:29;5.30;99.90
12481;DHT22;6305;48.398;11.762;2023-02-01T14:23:59;5.30;99.90
12481;DHT22;6305;48.398;11.762;2023-02-01T14:26:41;5.30;99.90
12481;DHT22;6305;48.398;11.762;2023-02-01T14:29:25;5.30;99.90
12481;DHT22;6305;48.398;11.762;2023-02-01T14:32:00;5.30;99.90
12481;DHT22;6305;48.398;11.762;2023-02-01T14:34:39;5.30;99.90
12481;DHT22;6305;48.398;11.762;2023-02-01T14:37:24;5.30;99.90
12481;DHT22;6305;48.398;11.762;2023-02-01T14:39:56;5.20;99.90
12481;DHT22;6305;48.398;11.762;2023-02-01T14:42:28;5.20;99.90
12481;DHT22;6305;48.398;11.762;2023-02-01T14:48:41;5.10;99.90
12481;DHT22;6305;48.398;11.762;2023-02-01T14:51:11;5.10;99.90
12481;DHT22;6305;48.398;11.762;2023-02-01T14:53:40;5.10;99.90
12481;DHT22;6305;48.398;11.762;2023-02-01T14:56:13;5.00;99.90
12481;DHT22;6305;48.398;11.762;2023-02-01T14:58:42;5.00;99.90
12481;DHT22;6305;48.398;11.762;2023-02-01T15:01:17;4.90;99.90
12481;DHT22;6305;48.398;11.762;2023-02-01T15:03:50;4.90;99.90
12481;DHT22;6305;48.398;11.762;2023-02-01T15:06:39;4.80;99.90
12481;DHT22;6305;48.398;11.762;2023-02-01T15:09:13;4.80;99.90
12481;DHT22;6305;48.398;11.762;2023-02-01T15:11:57;4.70;99.90
12481;DHT22;6305;48.398;11.762;2023-02-01T15:14:26;4.70;99.90
12481;DHT22;6305;48.398;11.762;2023-02-01T15:16:53;4.70;99.90
12481;DHT22;6305;48.398;11.762;2023-02-01T15:19:21;4.60;99.90
12481;DHT22;6305;48.398;11.762;2023-02-01T15:21:52;4.60;99.90
12481;DHT22;6305;48.398;11.762;2023-02-01T15:24:22;4.50;99.90
12481;DHT22;6305;48.398;11.762;2023-02-01T15:26:49;4.50;99.90
12481;DHT22;6305;48.398;11.762;2023-02-01T15:29:17;4.50;99.90
12481;DHT22;6305;48.398;11.762;2023-02-01T15:31:48;4.50;99.90
12481;DHT22;6305;48.398;11.762;2023-02-01T15:34:16;4.50;99.90
12481;DHT22;6305;48.398;11.762;2023-02-01T15:36:44;4.50;99.90
12481;DHT22;6305;48.398;11.762;2023-02-01T15:39:15;4.50;99.90
12481;DHT22;6305;48.398;11.762;2023-02-01T15:41:47;4.50;99.90
12481;DHT22;6305;48.398;11.762;2023-02-01T15:44:19;4.50;99.90
12481;DHT22;6305;48.398;11.762;2023-02-01T15:46:49;4.50;99.90
12481;DHT22;6305;48.398;11.762;2023-02-01T15:49:20;4.50;99.90
12481;DHT22;6305;48.398;11.762;2023-02-01T15:51:50;4.60;99.90
12481;DHT22;6305;48.398;11.762;2023-02-01T15:54:22;4.60;99.90
12481;DHT22;6305;48.398;11.762;2023-02-01T15:56:52;4.60;99.90
12481;DHT22;6305;48.398;11.762;2023-02-01T16:02:25;4.70;99.90
12481;DHT22;6305;48.398;11.762;2023-02-01T16:04:52;4.70;99.90
12481;DHT22;6305;48.398;11.762;2023-02-01T16:07:26;4.70;99.90
12481;DHT22;6305;48.398;11.762;2023-02-01T16:09:57;4.70;99.90
12481;DHT22;6305;48.398;11.762;2023-02-01T16:12:29;4.80;99.90
12481;DHT22;6305;48.398;11.762;2023-02-01T16:14:59;4.70;99.90
12481;DHT22;6305;48.398;11.762;2023-02-01T16:17:28;4.70;99.90
12481;DHT22;6305;48.398;11.762;2023-02-01T16:19:55;4.70;99.90
12481;DHT22;6305;48.398;11.762;2023-02-01T16:22:22;4.70;99.90
12481;DHT22;6305;48.398;11.762;2023-02-01T16:24:50;4.70;99.90
12481;DHT22;6305;48.398;11.762;2023-02-01T16:27:18;4.70;99.90
12481;DHT22;6305;48.398;11.762;2023-02-01T16:29:46;4.70;99.90
12481;DHT22;6305;48.398;11.762;2023-02-01T16:32:17;4.70;99.90
12481;DHT22;6305;48.398;11.762;2023-02-01T16:34:45;4.70;99.90
12481;DHT22;6305;48.398;11.762;2023-02-01T16:37:16;4.60;99.90
12481;DHT22;6305;48.398;11.762;2023-02-01T16:39:45;4.60;99.90